Barksdale AFB, Louisiana
Current Conditions -  °F | °C
As of 2:53 PM on Sunday 21 Dec 2014 (Local Time) from KDTN Reporting Station
Clear Clear  
Wind Chill: 57°   Ceiling: Unl
Heat Index: 57°   Visibility: 10mi
Dew Point: 43°   Wind: 9mph
Humidity: 59%   Direction: 140°SE
Pressure: 29.96"   Gusts: NA
Location:  32.5°N, 93.67°W
Report Text: KDTN 212053Z 14008KT 10SM CLR 14/06 A2996 RMK AO2 SLP146 T01390061 56043 $
Loading
Personal Weather Stations






























Interactive Weather Map New forecast layout! Learn more

10-Day Weather Forecast

Advertisements
Track Severe Weather on mobile